createdAt,value
2023-05-11T00:02:13.854Z,101356.47
2023-05-11T00:04:41.885Z,101348.59
2023-05-11T00:07:10.060Z,101342.02
2023-05-11T00:09:39.741Z,101348.23
2023-05-11T00:12:08.163Z,101352.09
2023-05-11T00:14:36.133Z,101351.56
2023-05-11T00:17:04.143Z,101350.41
2023-05-11T00:19:32.982Z,101341.46
2023-05-11T00:22:01.060Z,101345.16
2023-05-11T00:24:29.104Z,101331.55
2023-05-11T00:26:57.281Z,101335.25
2023-05-11T00:29:25.246Z,101340.28
2023-05-11T00:31:53.238Z,101325.83
2023-05-11T00:34:21.339Z,101331.23
2023-05-11T00:36:50.809Z,101327.53
2023-05-11T00:39:19.652Z,101326.32
2023-05-11T00:41:47.668Z,101325.11
2023-05-11T00:44:15.746Z,101322.27
2023-05-11T00:46:44.257Z,101321.29
2023-05-11T00:49:12.379Z,101314.87
2023-05-11T00:51:40.447Z,101310.34
2023-05-11T00:54:14.423Z,101312.85
2023-05-11T00:56:43.124Z,101309.16
2023-05-11T00:59:11.144Z,101314.35
2023-05-11T01:01:42.246Z,101322.13
2023-05-11T01:04:10.295Z,101322.13
2023-05-11T01:07:02.854Z,101321.29
2023-05-11T01:09:49.973Z,101320.93
2023-05-11T01:12:36.182Z,101305.79
2023-05-11T01:15:10.548Z,101309.84
2023-05-11T01:17:45.695Z,101313.54
2023-05-11T01:20:18.836Z,101324.98
2023-05-11T01:23:05.776Z,101322.95
2023-05-11T01:25:52.569Z,101323.80
2023-05-11T01:28:20.417Z,101327.14
2023-05-11T01:31:14.946Z,101325.96
2023-05-11T01:33:47.937Z,101335.45
2023-05-11T01:36:16.168Z,101329.36
2023-05-11T01:38:44.340Z,101321.61
2023-05-11T01:41:17.106Z,101327.70
2023-05-11T01:43:46.831Z,101320.60
2023-05-11T01:46:14.972Z,101317.72
2023-05-11T01:48:45.868Z,101320.24
2023-05-11T01:51:13.893Z,101320.77
2023-05-11T01:53:42.394Z,101322.27
2023-05-11T01:56:10.328Z,101323.64
2023-05-11T01:58:38.334Z,101321.97
2023-05-11T02:01:06.539Z,101322.27
2023-05-11T02:03:34.861Z,101319.75
2023-05-11T02:06:02.953Z,101326.84
2023-05-11T02:08:32.583Z,101327.14
2023-05-11T02:11:00.769Z,101325.96
2023-05-11T02:13:28.714Z,101325.11
2023-05-11T02:15:58.153Z,101330.84
2023-05-11T02:18:26.297Z,101331.23
2023-05-11T02:20:54.325Z,101327.53
2023-05-11T02:23:22.502Z,101329.88
2023-05-11T02:25:50.447Z,101325.34
2023-05-11T02:28:18.429Z,101329.36
2023-05-11T02:30:48.006Z,101326.88
2023-05-11T02:33:25.892Z,101325.54
2023-05-11T02:35:56.892Z,101331.26
2023-05-11T02:38:27.373Z,101320.14
2023-05-11T02:40:57.223Z,101322.66
2023-05-11T02:43:26.607Z,101312.26
2023-05-11T02:45:55.629Z,101319.16
2023-05-11T02:48:30.576Z,101310.95
2023-05-11T02:50:58.592Z,101320.70
2023-05-11T02:53:29.381Z,101313.63
2023-05-11T02:55:58.252Z,101311.97
2023-05-11T02:58:26.322Z,101309.13
2023-05-11T03:00:54.485Z,101310.63
2023-05-11T03:03:22.586Z,101303.76
2023-05-11T03:05:50.652Z,101306.44
2023-05-11T03:08:18.597Z,101297.38
2023-05-11T03:10:46.607Z,101303.30
2023-05-11T03:13:14.654Z,101296.86
2023-05-11T03:15:42.672Z,101295.55
2023-05-11T03:18:10.771Z,101299.61
2023-05-11T03:20:39.276Z,101295.91
2023-05-11T03:23:07.976Z,101294.70
2023-05-11T03:25:36.063Z,101297.41
2023-05-11T03:28:04.057Z,101299.09
2023-05-11T03:30:32.120Z,101300.63
2023-05-11T03:33:00.179Z,101294.90
2023-05-11T03:35:28.791Z,101300.98
2023-05-11T03:37:56.936Z,101294.73
2023-05-11T03:40:25.134Z,101301.30
2023-05-11T03:42:54.660Z,101298.79
2023-05-11T03:45:22.688Z,101297.13
2023-05-11T03:47:50.641Z,101295.42
2023-05-11T03:50:18.799Z,101305.72
2023-05-11T03:52:47.290Z,101301.15
2023-05-11T03:55:15.313Z,101293.76
2023-05-11T03:57:43.456Z,101292.12
2023-05-11T04:00:12.405Z,101292.94
2023-05-11T04:02:40.597Z,101286.40
2023-05-11T04:05:10.176Z,101290.09
2023-05-11T04:07:38.788Z,101290.78
2023-05-11T04:10:07.558Z,101287.91
2023-05-11T04:12:35.586Z,101291.92
2023-05-11T04:15:03.734Z,101282.87
2023-05-11T04:17:31.708Z,101287.77
2023-05-11T04:19:59.720Z,101280.35
2023-05-11T04:22:27.660Z,101274.63
2023-05-11T04:24:55.629Z,101276.13
2023-05-11T04:27:23.643Z,101281.16
2023-05-11T04:29:52.103Z,101279.66
2023-05-11T04:32:20.122Z,101278.13
2023-05-11T04:34:48.194Z,101278.13
2023-05-11T04:37:16.185Z,101277.63
2023-05-11T04:39:44.157Z,101290.26
2023-05-11T04:42:12.122Z,101295.98
2023-05-11T04:44:40.709Z,101288.75
2023-05-11T04:47:08.726Z,101288.75
2023-05-11T04:49:37.230Z,101279.34
2023-05-11T04:52:05.333Z,101283.85
2023-05-11T04:54:33.303Z,101285.52
2023-05-11T04:57:01.227Z,101294.97
2023-05-11T04:59:29.313Z,101284.70
2023-05-11T05:01:57.249Z,101283.03
2023-05-11T05:04:25.138Z,101283.52
2023-05-11T05:06:53.106Z,101291.40
2023-05-11T05:09:21.641Z,101284.14
2023-05-11T05:11:49.644Z,101287.87
2023-05-11T05:14:17.691Z,101297.74
2023-05-11T05:16:45.735Z,101290.87
2023-05-11T05:19:14.308Z,101288.49
2023-05-11T05:21:42.524Z,101284.47
2023-05-11T05:24:12.665Z,101286.14
2023-05-11T05:26:40.665Z,101286.27
2023-05-11T05:29:08.690Z,101297.38
2023-05-11T05:31:36.704Z,101294.51
2023-05-11T05:34:04.764Z,101296.53
2023-05-11T05:36:33.740Z,101293.69
2023-05-11T05:39:01.793Z,101295.00
2023-05-11T05:41:30.008Z,101298.37
2023-05-11T05:43:57.990Z,101296.34
2023-05-11T05:46:26.117Z,101302.19
2023-05-11T05:48:54.123Z,101296.47
2023-05-11T05:51:22.533Z,101291.59
2023-05-11T05:53:50.475Z,101301.34
2023-05-11T05:56:18.465Z,101301.99
2023-05-11T05:58:46.550Z,101307.03
2023-05-11T06:01:14.515Z,101298.95
2023-05-11T06:03:42.790Z,101304.80
2023-05-11T06:06:10.879Z,101309.35
2023-05-11T06:08:39.138Z,101307.81
2023-05-11T06:11:07.196Z,101297.19
2023-05-11T06:13:35.139Z,101303.95
2023-05-11T06:16:03.484Z,101298.23
2023-05-11T06:18:31.436Z,101298.82
2023-05-11T06:21:00.595Z,101296.34
2023-05-11T06:23:28.625Z,101298.82
2023-05-11T06:25:56.733Z,101300.16
2023-05-11T06:28:25.791Z,101300.69
2023-05-11T06:30:53.774Z,101303.53
2023-05-11T06:33:21.915Z,101298.30
2023-05-11T06:35:50.308Z,101305.82
2023-05-11T06:38:18.360Z,101294.90
2023-05-11T06:40:46.287Z,101298.20
2023-05-11T06:43:14.341Z,101294.64
2023-05-11T06:45:43.206Z,101296.83
2023-05-11T06:48:11.486Z,101292.09
2023-05-11T06:50:39.433Z,101292.94
2023-05-11T06:53:07.382Z,101300.13
2023-05-11T06:55:35.454Z,101287.58
2023-05-11T06:58:03.528Z,101289.41
2023-05-11T07:00:31.587Z,101292.41
2023-05-11T07:02:59.718Z,101284.80
2023-05-11T07:05:29.223Z,101294.70
2023-05-11T07:07:57.192Z,101287.94
2023-05-11T07:10:25.251Z,101296.80
2023-05-11T07:12:53.413Z,101287.77
2023-05-11T07:15:21.412Z,101290.84
2023-05-11T07:17:49.513Z,101293.66
2023-05-11T07:20:18.028Z,101292.68
2023-05-11T07:22:46.215Z,101294.60
2023-05-11T07:25:14.180Z,101298.92
2023-05-11T07:27:42.308Z,101296.77
2023-05-11T07:30:10.670Z,101302.52
2023-05-11T07:35:03.946Z,101297.05
2023-05-11T07:37:32.037Z,101292.28
2023-05-11T07:40:00.005Z,101293.00
2023-05-11T07:42:28.267Z,101290.48
2023-05-11T07:44:56.311Z,101294.45
2023-05-11T07:47:24.766Z,101299.31
2023-05-11T07:49:52.760Z,101287.38
2023-05-11T07:52:20.921Z,101296.60
2023-05-11T07:54:48.956Z,101293.00
2023-05-11T07:57:16.901Z,101290.26
2023-05-11T07:59:44.839Z,101281.88
2023-05-11T08:02:13.459Z,101288.63
2023-05-11T08:04:42.116Z,101287.41
2023-05-11T08:07:10.348Z,101283.33
2023-05-11T08:09:38.787Z,101278.95
2023-05-11T08:12:06.913Z,101276.75
2023-05-11T08:14:34.953Z,101280.61
2023-05-11T08:17:02.977Z,101281.10
2023-05-11T08:19:30.937Z,101289.11
2023-05-11T08:21:58.856Z,101280.48
2023-05-11T08:24:27.204Z,101277.99
2023-05-11T08:26:55.381Z,101283.62
2023-05-11T08:29:23.330Z,101273.32
2023-05-11T08:31:51.366Z,101278.32
2023-05-11T08:34:20.266Z,101275.70
2023-05-11T08:36:48.632Z,101276.52
2023-05-11T08:39:24.871Z,101276.85
2023-05-11T08:42:06.701Z,101273.65
2023-05-11T08:44:35.070Z,101272.11
2023-05-11T08:47:21.048Z,101270.09
2023-05-11T08:49:50.430Z,101276.91
2023-05-11T08:52:18.635Z,101271.42
2023-05-11T08:54:47.722Z,101264.10
2023-05-11T08:57:16.126Z,101263.38
2023-05-11T08:59:46.671Z,101257.07
2023-05-11T09:02:19.263Z,101257.66
2023-05-11T09:04:49.147Z,101262.53
2023-05-11T09:07:18.868Z,101259.55
2023-05-11T09:09:48.190Z,101260.24
2023-05-11T09:12:17.084Z,101249.35
2023-05-11T09:14:45.564Z,101257.01
2023-05-11T09:17:13.936Z,101252.20
2023-05-11T09:19:59.431Z,101241.60
2023-05-11T09:22:30.873Z,101239.97
2023-05-11T09:25:01.345Z,101237.32
2023-05-11T09:27:29.539Z,101243.27
2023-05-11T09:29:58.025Z,101235.72
2023-05-11T09:32:26.528Z,101247.78
2023-05-11T09:34:55.059Z,101243.53
2023-05-11T09:37:23.501Z,101238.66
2023-05-11T09:40:06.779Z,101237.45
2023-05-11T09:42:39.672Z,101232.98
2023-05-11T09:45:08.722Z,101237.35
2023-05-11T09:47:41.129Z,101226.83
2023-05-11T09:52:53.829Z,101224.38
2023-05-11T09:55:22.032Z,101223.46
2023-05-11T09:57:55.869Z,101219.53
2023-05-11T10:00:24.375Z,101221.07
2023-05-11T10:03:09.167Z,101225.35
2023-05-11T10:05:38.092Z,101228.07
2023-05-11T10:08:07.111Z,101231.14
2023-05-11T10:10:35.975Z,101221.40
2023-05-11T10:13:04.994Z,101217.97
2023-05-11T10:15:34.412Z,101217.05
2023-05-11T10:18:02.867Z,101219.89
2023-05-11T10:20:31.132Z,101227.02
2023-05-11T10:22:59.488Z,101222.45
2023-05-11T10:25:30.425Z,101223.33
2023-05-11T10:27:58.615Z,101218.00
2023-05-11T10:30:26.798Z,101216.27
2023-05-11T10:32:55.196Z,101213.98
2023-05-11T10:35:23.747Z,101211.59
2023-05-11T10:37:52.098Z,101206.45
2023-05-11T10:40:20.465Z,101206.45
2023-05-11T10:43:27.089Z,101206.81
2023-05-11T10:46:10.508Z,101204.40
2023-05-11T10:49:13.919Z,101197.95
2023-05-11T10:52:01.247Z,101195.44
2023-05-11T10:54:49.588Z,101195.73
2023-05-11T10:57:37.683Z,101205.80
2023-05-11T11:00:21.214Z,101196.22
2023-05-11T11:02:49.763Z,101201.72
2023-05-11T11:05:34.792Z,101185.99
2023-05-11T11:08:06.780Z,101192.30
2023-05-11T11:10:42.858Z,101186.28
2023-05-11T11:13:13.421Z,101176.34
2023-05-11T11:15:57.188Z,101186.58
2023-05-11T11:18:32.378Z,101190.99
2023-05-11T11:21:01.249Z,101189.48
2023-05-11T11:23:44.555Z,101181.70
2023-05-11T11:26:16.803Z,101187.88
2023-05-11T11:29:02.050Z,101183.73
2023-05-11T11:31:34.235Z,101179.45
2023-05-11T11:34:24.232Z,101177.09
2023-05-11T11:37:02.426Z,101181.51
2023-05-11T11:39:32.038Z,101184.02
2023-05-11T11:42:04.459Z,101184.02
2023-05-11T11:44:33.006Z,101177.62
2023-05-11T11:47:23.816Z,101182.66
2023-05-11T11:49:53.429Z,101178.24
2023-05-11T11:52:30.583Z,101179.05
2023-05-11T11:55:02.646Z,101174.64
2023-05-11T11:57:36.507Z,101169.94
2023-05-11T12:00:14.407Z,101170.26
2023-05-11T12:02:44.125Z,101176.31
2023-05-11T12:05:24.493Z,101174.41
2023-05-11T12:07:53.686Z,101177.00
2023-05-11T12:10:22.730Z,101177.81
2023-05-11T12:12:52.356Z,101184.02
2023-05-11T12:15:46.898Z,101182.49
2023-05-11T12:18:24.863Z,101181.54
2023-05-11T12:20:53.077Z,101189.00
2023-05-11T12:23:21.400Z,101182.59
2023-05-11T12:26:02.490Z,101174.12
2023-05-11T12:28:30.815Z,101186.22
2023-05-11T12:31:00.638Z,101185.63
2023-05-11T12:33:29.711Z,101185.53
2023-05-11T12:35:58.492Z,101174.38
2023-05-11T12:38:26.736Z,101174.38
2023-05-11T12:40:55.044Z,101179.09
2023-05-11T12:43:23.957Z,101186.88
2023-05-11T12:45:52.216Z,101179.94
2023-05-11T12:48:20.607Z,101180.53
2023-05-11T12:50:48.773Z,101184.12
2023-05-11T12:53:18.184Z,101189.29
2023-05-11T12:55:46.696Z,101192.40
2023-05-11T12:58:18.040Z,101187.13
2023-05-11T13:00:56.587Z,101197.79
2023-05-11T13:03:28.785Z,101186.67
2023-05-11T13:06:08.303Z,101178.99
2023-05-11T13:08:46.966Z,101181.28
2023-05-11T13:11:26.085Z,101175.16
2023-05-11T13:13:54.661Z,101176.02
2023-05-11T13:16:27.792Z,101179.61
2023-05-11T13:19:06.268Z,101181.38
2023-05-11T13:21:34.773Z,101181.15
2023-05-11T13:24:05.176Z,101180.17
2023-05-11T13:26:33.590Z,101169.45
2023-05-11T13:29:10.818Z,101173.14
2023-05-11T13:31:50.536Z,101170.75
2023-05-11T13:34:19.398Z,101173.14
2023-05-11T13:36:48.005Z,101175.16
2023-05-11T13:39:16.213Z,101175.88
2023-05-11T13:41:44.903Z,101172.19
2023-05-11T13:44:13.276Z,101170.03
2023-05-11T13:46:41.530Z,101165.00
2023-05-11T13:49:10.032Z,101167.29
2023-05-11T13:51:38.302Z,101169.67
2023-05-11T13:54:07.040Z,101170.52
2023-05-11T13:56:35.597Z,101171.11
2023-05-11T13:59:03.798Z,101171.44
2023-05-11T14:01:31.957Z,101161.89
2023-05-11T14:04:00.434Z,101172.75
2023-05-11T14:06:28.627Z,101157.58
2023-05-11T14:08:57.338Z,101161.99
2023-05-11T14:11:25.561Z,101155.05
2023-05-11T14:13:56.599Z,101142.05
2023-05-11T14:16:24.663Z,101148.03
2023-05-11T14:18:53.373Z,101142.44
2023-05-11T14:21:21.431Z,101145.41
2023-05-11T14:24:06.707Z,101144.59
2023-05-11T14:26:37.408Z,101141.85
2023-05-11T14:29:05.404Z,101145.41
2023-05-11T14:31:34.154Z,101134.30
2023-05-11T14:34:02.376Z,101137.76
2023-05-11T14:36:30.467Z,101132.98
2023-05-11T14:38:58.594Z,101127.27
2023-05-11T14:41:26.925Z,101136.36
2023-05-11T14:43:55.018Z,101135.73
2023-05-11T14:46:25.139Z,101137.66
2023-05-11T14:48:54.517Z,101129.69
2023-05-11T14:51:22.432Z,101126.55
2023-05-11T14:53:50.428Z,101123.34
2023-05-11T14:56:18.341Z,101124.29
2023-05-11T14:58:47.292Z,101129.69
2023-05-11T15:01:15.321Z,101125.37
2023-05-11T15:03:43.477Z,101126.41
2023-05-11T15:06:11.630Z,101127.27
2023-05-11T15:08:39.691Z,101122.63
2023-05-11T15:11:07.757Z,101129.78
2023-05-11T15:13:35.729Z,101120.79
2023-05-11T15:16:03.713Z,101125.11
2023-05-11T15:18:31.755Z,101124.39
2023-05-11T15:20:59.849Z,101127.01
2023-05-11T15:23:28.227Z,101122.59
2023-05-11T15:25:56.331Z,101121.87
2023-05-11T15:28:24.381Z,101124.72
2023-05-11T15:30:52.345Z,101123.80
2023-05-11T15:33:21.257Z,101113.27
2023-05-11T15:35:51.568Z,101109.09
2023-05-11T15:38:19.685Z,101115.53
2023-05-11T15:40:47.954Z,101122.27
2023-05-11T15:43:15.962Z,101115.92
2023-05-11T15:45:43.979Z,101125.11
2023-05-11T15:48:12.226Z,101120.34
2023-05-11T15:50:40.380Z,101111.73
2023-05-11T15:53:08.476Z,101125.70
2023-05-11T15:55:36.715Z,101129.75
2023-05-11T15:58:08.805Z,101131.09
2023-05-11T16:00:36.737Z,101131.09
2023-05-11T16:03:04.993Z,101120.34
2023-05-11T16:05:33.908Z,101120.56
2023-05-11T16:08:02.058Z,101121.77
2023-05-11T16:10:30.001Z,101119.74
2023-05-11T16:12:58.883Z,101118.08
2023-05-11T16:15:27.429Z,101118.90
2023-05-11T16:17:55.410Z,101118.90
2023-05-11T16:20:23.517Z,101118.41
2023-05-11T16:22:51.508Z,101119.84
2023-05-11T16:25:19.768Z,101117.49
2023-05-11T16:27:47.755Z,101116.38
2023-05-11T16:30:24.268Z,101124.88
2023-05-11T16:32:54.017Z,101123.54
2023-05-11T16:35:22.190Z,101127.40
2023-05-11T16:37:50.337Z,101123.54
2023-05-11T16:40:22.302Z,101127.27
2023-05-11T16:42:50.687Z,101126.09
2023-05-11T16:45:18.713Z,101122.85
2023-05-11T16:47:48.009Z,101120.70
2023-05-11T16:50:17.582Z,101110.66
2023-05-11T16:52:46.641Z,101114.35
2023-05-11T16:55:14.842Z,101115.07
2023-05-11T16:57:42.999Z,101112.20
2023-05-11T17:00:11.550Z,101116.77
2023-05-11T17:02:39.719Z,101112.20
2023-05-11T17:05:08.742Z,101114.25
2023-05-11T17:07:36.701Z,101121.05
2023-05-11T17:10:04.886Z,101125.27
2023-05-11T17:12:33.376Z,101123.44
2023-05-11T17:15:01.956Z,101120.59
2023-05-11T17:17:29.973Z,101125.01
2023-05-11T17:19:58.249Z,101126.55
2023-05-11T17:22:27.326Z,101130.11
2023-05-11T17:24:55.339Z,101130.38
2023-05-11T17:27:23.871Z,101129.06
2023-05-11T17:29:51.799Z,101128.25
2023-05-11T17:32:20.034Z,101123.67
2023-05-11T17:34:48.152Z,101128.57
2023-05-11T17:37:30.527Z,101128.12
2023-05-11T17:40:00.304Z,101126.91
2023-05-11T17:42:28.476Z,101130.11
2023-05-11T17:44:57.118Z,101127.63
2023-05-11T17:47:25.661Z,101129.55
2023-05-11T17:49:53.697Z,101134.07
2023-05-11T17:52:21.769Z,101131.55
2023-05-11T17:54:49.818Z,101135.60
2023-05-11T17:57:17.960Z,101133.58
2023-05-11T17:59:47.447Z,101137.17
2023-05-11T18:02:15.640Z,101139.20
2023-05-11T18:04:43.647Z,101142.77
2023-05-11T18:07:11.605Z,101136.55
2023-05-11T18:09:39.622Z,101149.59
2023-05-11T18:12:09.229Z,101147.44
2023-05-11T18:14:37.693Z,101134.27
2023-05-11T18:17:06.618Z,101139.89
2023-05-11T18:19:34.740Z,101140.61
2023-05-11T18:22:02.909Z,101143.84
2023-05-11T18:24:30.904Z,101139.66
2023-05-11T18:26:59.034Z,101142.02
2023-05-11T18:29:27.257Z,101148.13
2023-05-11T18:31:55.346Z,101149.53
2023-05-11T18:34:23.708Z,101154.27
2023-05-11T18:36:52.118Z,101152.12
2023-05-11T18:39:20.761Z,101156.17
2023-05-11T18:41:49.264Z,101155.22
2023-05-11T18:44:17.735Z,101152.84
2023-05-11T18:46:45.837Z,101156.17
2023-05-11T18:49:14.653Z,101161.40
2023-05-11T18:51:42.714Z,101164.64
2023-05-11T18:54:11.350Z,101163.10
2023-05-11T18:56:39.357Z,101157.38
2023-05-11T18:59:07.401Z,101156.40
2023-05-11T19:01:46.973Z,101155.22
2023-05-11T19:04:19.055Z,101155.22
2023-05-11T19:06:47.041Z,101160.09
2023-05-11T19:09:15.469Z,101158.91
2023-05-11T19:11:43.519Z,101159.60
2023-05-11T19:14:13.717Z,101166.05
2023-05-11T19:16:41.752Z,101166.37
2023-05-11T19:19:10.185Z,101169.12
2023-05-11T19:21:41.807Z,101163.07
2023-05-11T19:24:10.364Z,101167.09
2023-05-11T19:26:39.646Z,101168.63
2023-05-11T19:29:08.653Z,101171.87
2023-05-11T19:31:37.330Z,101176.73
2023-05-11T19:34:05.537Z,101179.81
2023-05-11T19:36:34.726Z,101177.32
2023-05-11T19:39:02.782Z,101190.44
2023-05-11T19:41:30.814Z,101181.70
2023-05-11T19:43:59.144Z,101188.12
2023-05-11T19:46:27.437Z,101186.91
2023-05-11T19:48:55.468Z,101188.12
2023-05-11T19:51:23.638Z,101185.11
2023-05-11T19:53:51.941Z,101188.80
2023-05-11T19:56:19.927Z,101187.62
2023-05-11T19:58:47.945Z,101187.49
2023-05-11T20:01:16.237Z,101181.73
2023-05-11T20:03:44.566Z,101198.55
2023-05-11T20:06:12.887Z,101194.88
2023-05-11T20:08:40.966Z,101199.63
2023-05-11T20:11:09.124Z,101204.01
2023-05-11T20:13:37.315Z,101201.03
2023-05-11T20:16:05.442Z,101194.45
2023-05-11T20:18:33.524Z,101188.93
2023-05-11T20:21:01.476Z,101191.48
2023-05-11T20:23:29.389Z,101192.17
2023-05-11T20:26:17.757Z,101191.32
2023-05-11T20:28:45.877Z,101187.27
2023-05-11T20:31:13.821Z,101188.80
2023-05-11T20:36:12.695Z,101194.16
2023-05-11T20:38:40.655Z,101184.29
2023-05-11T20:41:09.065Z,101185.43
2023-05-11T20:43:37.028Z,101184.98
2023-05-11T20:46:05.418Z,101187.98
2023-05-11T20:48:40.681Z,101182.26
2023-05-11T20:51:09.895Z,101181.73
2023-05-11T20:53:37.897Z,101185.30
2023-05-11T20:56:05.920Z,101177.55
2023-05-11T20:58:33.979Z,101173.37
2023-05-11T21:01:02.274Z,101175.07
2023-05-11T21:03:30.357Z,101178.24
2023-05-11T21:05:58.385Z,101176.08
2023-05-11T21:08:26.437Z,101176.60
2023-05-11T21:10:54.531Z,101175.76
2023-05-11T21:13:22.567Z,101176.60
2023-05-11T21:15:50.574Z,101166.83
2023-05-11T21:18:18.687Z,101168.49
2023-05-11T21:20:46.978Z,101166.96
2023-05-11T21:23:15.740Z,101164.08
2023-05-11T21:25:43.699Z,101171.83
2023-05-11T21:28:11.764Z,101166.47
2023-05-11T21:30:39.801Z,101166.11
2023-05-11T21:33:07.893Z,101175.20
2023-05-11T21:35:35.968Z,101175.20
2023-05-11T21:38:04.516Z,101171.51
2023-05-11T21:40:32.557Z,101172.68
2023-05-11T21:43:00.496Z,101171.83
2023-05-11T21:45:28.581Z,101171.83
2023-05-11T21:47:56.524Z,101175.07
2023-05-11T21:50:24.405Z,101182.95
2023-05-11T21:52:52.382Z,101175.20
2023-05-11T21:55:20.505Z,101181.73
2023-05-11T21:57:48.472Z,101178.57
2023-05-11T22:00:19.379Z,101182.95
2023-05-11T22:02:47.563Z,101184.62
2023-05-11T22:05:15.616Z,101184.12
2023-05-11T22:07:44.009Z,101191.02
2023-05-11T22:10:12.930Z,101195.08
2023-05-11T22:12:40.905Z,101189.00
2023-05-11T22:15:10.291Z,101194.39
2023-05-11T22:20:09.668Z,101193.05
2023-05-11T22:22:57.584Z,101196.42
2023-05-11T22:25:25.649Z,101194.39
2023-05-11T22:27:53.578Z,101202.14
2023-05-11T22:30:21.895Z,101205.34
2023-05-11T22:35:25.103Z,101200.80
2023-05-11T22:37:53.157Z,101198.28
2023-05-11T22:40:21.318Z,101192.23
2023-05-11T22:42:49.568Z,101201.29
2023-05-11T22:45:17.970Z,101198.77
2023-05-11T22:47:46.916Z,101201.98
2023-05-11T22:50:14.934Z,101203.16
2023-05-11T22:52:42.980Z,101201.52
2023-05-11T22:55:10.979Z,101200.31
2023-05-11T22:57:39.212Z,101194.09
2023-05-11T23:00:07.936Z,101202.08
2023-05-11T23:02:37.151Z,101195.83
2023-05-11T23:05:05.438Z,101194.00
2023-05-11T23:07:33.477Z,101196.88
2023-05-11T23:10:01.416Z,101195.90
2023-05-11T23:12:29.529Z,101196.26
2023-05-11T23:14:57.574Z,101189.68
2023-05-11T23:17:25.671Z,101188.84
2023-05-11T23:19:54.334Z,101193.73
2023-05-11T23:22:22.332Z,101190.37
2023-05-11T23:24:50.295Z,101181.64
2023-05-11T23:27:18.549Z,101184.35
2023-05-11T23:29:46.504Z,101180.98
2023-05-11T23:32:14.405Z,101179.35
2023-05-11T23:34:42.375Z,101172.78
2023-05-11T23:37:10.454Z,101180.17
2023-05-11T23:39:38.527Z,101173.63
2023-05-11T23:42:06.744Z,101173.76
2023-05-11T23:44:36.636Z,101179.16
2023-05-11T23:47:04.664Z,101180.30
2023-05-11T23:49:32.681Z,101174.58
2023-05-11T23:52:00.620Z,101170.06
2023-05-11T23:54:29.056Z,101167.58
2023-05-11T23:56:57.277Z,101169.41
2023-05-11T23:59:25.250Z,101164.54
